createdAt,value
2022-08-09T00:00:23.403Z,7.70
2022-08-09T00:02:54.482Z,11.75
2022-08-09T00:06:19.549Z,12.73
2022-08-09T00:08:32.443Z,8.60
2022-08-09T00:11:24.332Z,9.38
2022-08-09T00:13:55.695Z,9.35
2022-08-09T00:16:38.321Z,10.10
2022-08-09T00:19:11.779Z,7.55
2022-08-09T00:21:43.150Z,8.07
2022-08-09T00:24:27.579Z,8.05
2022-08-09T00:27:00.686Z,8.48
2022-08-09T00:30:16.565Z,8.77
2022-08-09T00:32:35.737Z,7.40
2022-08-09T00:35:06.262Z,10.05
2022-08-09T00:37:37.686Z,9.73
2022-08-09T00:40:16.932Z,8.70
2022-08-09T00:44:20.482Z,9.07
2022-08-09T00:45:50.462Z,8.68
2022-08-09T00:48:21.387Z,8.85
2022-08-09T00:50:52.689Z,8.73
2022-08-09T00:53:24.300Z,10.27
2022-08-09T00:56:03.991Z,8.68
2022-08-09T00:58:39.205Z,10.85
2022-08-09T01:03:57.565Z,9.07
2022-08-09T01:06:53.799Z,7.75
2022-08-09T01:09:36.545Z,8.10
2022-08-09T01:12:15.840Z,7.50
2022-08-09T01:14:55.540Z,8.77
2022-08-09T01:17:34.165Z,6.30
2022-08-09T01:20:09.467Z,9.30
2022-08-09T01:22:54.819Z,7.07
2022-08-09T01:25:42.018Z,7.63
2022-08-09T01:28:22.731Z,7.00
2022-08-09T01:31:00.659Z,6.97
2022-08-09T01:33:34.274Z,7.90
2022-08-09T01:36:08.094Z,8.05
2022-08-09T01:38:44.340Z,7.30
2022-08-09T01:41:25.930Z,8.57
2022-08-09T01:44:01.868Z,7.45
2022-08-09T01:46:35.384Z,7.93
2022-08-09T01:49:10.177Z,9.10
2022-08-09T01:51:54.317Z,7.47
2022-08-09T01:54:27.493Z,7.15
2022-08-09T01:57:04.045Z,7.40
2022-08-09T01:59:40.949Z,7.63
2022-08-09T02:02:29.953Z,8.68
2022-08-09T02:05:15.859Z,6.85
2022-08-09T02:08:39.998Z,11.05
2022-08-09T02:10:50.977Z,8.25
2022-08-09T02:13:26.145Z,9.43
2022-08-09T02:16:16.005Z,7.05
2022-08-09T02:18:47.724Z,7.72
2022-08-09T02:21:24.205Z,9.18
2022-08-09T02:24:01.979Z,8.77
2022-08-09T02:26:35.922Z,9.40
2022-08-09T02:29:16.513Z,10.15
2022-08-09T02:31:50.733Z,8.18
2022-08-09T02:34:40.851Z,8.57
2022-08-09T02:37:17.796Z,9.50
2022-08-09T02:39:54.986Z,8.95
2022-08-09T02:42:29.651Z,9.13
2022-08-09T02:45:04.832Z,8.25
2022-08-09T02:47:57.351Z,9.00
2022-08-09T02:50:34.426Z,8.93
2022-08-09T02:53:06.446Z,8.15
2022-08-09T02:55:46.773Z,9.57
2022-08-09T02:58:32.794Z,8.73
2022-08-09T03:01:11.353Z,10.10
2022-08-09T03:04:17.980Z,9.20
2022-08-09T03:06:40.977Z,9.95
2022-08-09T03:09:13.086Z,8.45
2022-08-09T03:12:09.660Z,8.90
2022-08-09T03:14:36.539Z,10.23
2022-08-09T03:17:07.439Z,7.63
2022-08-09T03:19:58.440Z,9.30
2022-08-09T03:22:42.040Z,7.45
2022-08-09T03:25:26.329Z,9.32
2022-08-09T03:28:11.253Z,10.05
2022-08-09T03:30:43.524Z,6.72
2022-08-09T03:33:19.274Z,8.45
2022-08-09T03:36:15.574Z,7.78
2022-08-09T03:41:18.250Z,8.30
2022-08-09T03:44:03.497Z,6.57
2022-08-09T03:46:39.524Z,9.32
2022-08-09T03:49:11.867Z,9.00
2022-08-09T03:51:58.742Z,8.07
2022-08-09T03:54:34.454Z,10.18
2022-08-09T03:57:18.649Z,6.85
2022-08-09T03:59:54.983Z,7.07
2022-08-09T04:02:28.892Z,6.78
2022-08-09T04:05:06.255Z,6.95
2022-08-09T04:07:53.029Z,8.10
2022-08-09T04:10:28.764Z,7.45
2022-08-09T04:13:03.699Z,7.85
2022-08-09T04:15:40.672Z,7.47
2022-08-09T04:18:25.279Z,7.25
2022-08-09T04:20:55.597Z,8.10
2022-08-09T04:23:28.364Z,8.13
2022-08-09T04:25:58.671Z,7.60
2022-08-09T04:28:33.688Z,7.82
2022-08-09T04:31:13.110Z,7.47
2022-08-09T04:33:52.381Z,7.72
2022-08-09T04:36:28.733Z,6.53
2022-08-09T04:39:04.553Z,6.97
2022-08-09T04:41:43.692Z,6.63
2022-08-09T04:44:14.493Z,8.25
2022-08-09T04:46:58.669Z,8.35
2022-08-09T04:49:52.281Z,9.27
2022-08-09T04:52:26.954Z,7.25
2022-08-09T04:57:58.904Z,8.40
2022-08-09T05:00:22.431Z,6.22
2022-08-09T05:02:53.842Z,7.63
2022-08-09T05:05:32.230Z,6.80
2022-08-09T05:08:15.089Z,7.30
2022-08-09T05:10:48.178Z,7.00
2022-08-09T05:13:18.578Z,7.72
2022-08-09T05:15:52.288Z,6.20
2022-08-09T05:18:39.294Z,11.10
2022-08-09T05:21:24.256Z,8.45
2022-08-09T05:24:00.423Z,6.47
2022-08-09T05:26:45.815Z,6.45
2022-08-09T05:29:21.704Z,8.35
2022-08-09T05:31:57.065Z,7.53
2022-08-09T05:34:31.456Z,7.32
2022-08-09T05:37:05.179Z,6.75
2022-08-09T05:39:42.566Z,7.35
2022-08-09T05:42:21.511Z,6.32
2022-08-09T05:44:53.358Z,9.30
2022-08-09T05:47:25.199Z,8.57
2022-08-09T05:50:25.854Z,7.13
2022-08-09T05:52:52.105Z,8.38
2022-08-09T05:55:24.476Z,8.70
2022-08-09T05:57:58.450Z,7.47
2022-08-09T06:00:30.669Z,8.75
2022-08-09T06:03:10.600Z,8.40
2022-08-09T06:05:57.245Z,10.02
2022-08-09T06:08:31.357Z,7.25
2022-08-09T06:11:01.757Z,8.85
2022-08-09T06:13:49.514Z,10.77
2022-08-09T06:16:19.661Z,7.47
2022-08-09T06:18:52.790Z,6.72
2022-08-09T06:21:23.931Z,8.40
2022-08-09T06:24:01.123Z,7.07
2022-08-09T06:26:32.474Z,6.93
2022-08-09T06:29:05.655Z,6.88
2022-08-09T06:31:39.938Z,7.55
2022-08-09T06:34:29.880Z,6.68
2022-08-09T06:37:01.080Z,7.53
2022-08-09T06:39:48.435Z,7.20
2022-08-09T06:42:24.978Z,6.25
2022-08-09T06:45:52.063Z,6.70
2022-08-09T06:48:00.766Z,7.17
2022-08-09T06:50:32.056Z,7.05
2022-08-09T06:53:04.878Z,9.20
2022-08-09T06:55:35.814Z,5.82
2022-08-09T06:58:08.025Z,5.82
2022-08-09T07:01:01.187Z,6.40
2022-08-09T07:06:10.695Z,6.38
2022-08-09T07:08:41.903Z,7.75
2022-08-09T07:11:17.673Z,7.05
2022-08-09T07:14:05.077Z,7.25
2022-08-09T07:16:44.752Z,6.72
2022-08-09T07:19:23.508Z,5.75
2022-08-09T07:21:57.315Z,5.90
2022-08-09T07:24:31.490Z,6.05
2022-08-09T07:27:04.410Z,7.00
2022-08-09T07:29:43.076Z,5.03
2022-08-09T07:32:15.886Z,6.97
2022-08-09T07:34:48.643Z,6.32
2022-08-09T07:37:22.408Z,6.85
2022-08-09T07:39:54.636Z,5.88
2022-08-09T07:42:32.538Z,7.03
2022-08-09T07:45:15.005Z,7.90
2022-08-09T07:48:01.454Z,5.82
2022-08-09T07:50:36.637Z,9.80
2022-08-09T07:53:08.985Z,6.57
2022-08-09T07:56:02.810Z,6.03
2022-08-09T07:58:29.663Z,7.05
2022-08-09T08:01:06.632Z,6.93
2022-08-09T08:03:44.286Z,6.53
2022-08-09T08:06:21.192Z,6.55
2022-08-09T08:09:03.814Z,7.38
2022-08-09T08:12:24.861Z,7.15
2022-08-09T08:14:28.502Z,5.68
2022-08-09T08:17:07.728Z,6.88
2022-08-09T08:19:46.495Z,7.18
2022-08-09T08:22:17.013Z,6.15
2022-08-09T08:24:49.207Z,7.72
2022-08-09T08:27:21.195Z,6.90
2022-08-09T08:29:57.455Z,6.68
2022-08-09T08:32:28.899Z,6.32
2022-08-09T08:35:03.563Z,7.80
2022-08-09T08:37:41.645Z,6.10
2022-08-09T08:40:24.663Z,11.40
2022-08-09T08:43:00.100Z,9.18
2022-08-09T08:45:37.237Z,5.60
2022-08-09T08:48:10.147Z,6.13
2022-08-09T08:50:45.442Z,6.67
2022-08-09T08:53:21.587Z,5.90
2022-08-09T08:55:52.824Z,8.18
2022-08-09T08:58:27.396Z,6.00
2022-08-09T09:00:59.889Z,6.05
2022-08-09T09:03:37.523Z,7.25
2022-08-09T09:06:14.219Z,6.75
2022-08-09T09:08:52.856Z,6.80
2022-08-09T09:11:33.742Z,6.22
2022-08-09T09:14:16.091Z,7.22
2022-08-09T09:16:46.595Z,6.45
2022-08-09T09:19:40.862Z,7.20
2022-08-09T09:22:16.834Z,5.97
2022-08-09T09:26:01.464Z,5.40
2022-08-09T09:28:04.473Z,6.55
2022-08-09T09:30:54.457Z,7.38
2022-08-09T09:33:44.965Z,6.57
2022-08-09T09:36:20.216Z,7.38
2022-08-09T09:38:57.382Z,6.43
2022-08-09T09:41:48.892Z,6.40
2022-08-09T09:44:31.456Z,7.00
2022-08-09T09:47:09.180Z,9.52
2022-08-09T09:50:13.864Z,5.95
2022-08-09T09:52:36.693Z,6.43
2022-08-09T09:55:23.927Z,6.72
2022-08-09T10:00:54.545Z,6.20
2022-08-09T10:03:57.992Z,5.95
2022-08-09T10:09:11.895Z,6.43
2022-08-09T10:12:14.355Z,6.78
2022-08-09T10:14:53.166Z,7.40
2022-08-09T10:17:50.399Z,5.60
2022-08-09T10:20:33.119Z,7.22
2022-08-09T10:23:21.884Z,6.05
2022-08-09T10:26:06.517Z,6.85
2022-08-09T10:28:49.096Z,7.25
2022-08-09T10:34:33.570Z,5.93
2022-08-09T10:37:09.797Z,6.80
2022-08-09T10:39:48.991Z,6.40
2022-08-09T10:42:20.233Z,6.45
2022-08-09T10:45:04.214Z,7.75
2022-08-09T10:48:16.214Z,6.45
2022-08-09T10:50:58.441Z,6.30
2022-08-09T10:53:46.949Z,8.73
2022-08-09T10:56:26.455Z,6.40
2022-08-09T10:58:59.012Z,6.40
2022-08-09T11:03:14.214Z,7.22
2022-08-09T11:04:34.856Z,9.50
2022-08-09T11:07:54.940Z,7.70
2022-08-09T11:10:56.297Z,6.93
2022-08-09T11:13:49.938Z,6.07
2022-08-09T11:16:37.389Z,8.05
2022-08-09T11:19:11.934Z,6.28
2022-08-09T11:22:16.767Z,9.93
2022-08-09T11:25:08.230Z,6.65
2022-08-09T11:27:52.841Z,6.53
2022-08-09T11:30:37.815Z,6.53
2022-08-09T11:33:13.988Z,5.57
2022-08-09T11:35:57.578Z,6.35
2022-08-09T11:38:33.110Z,6.20
2022-08-09T11:41:38.362Z,6.38
2022-08-09T11:44:11.289Z,8.60
2022-08-09T11:46:57.758Z,5.50
2022-08-09T11:50:56.475Z,6.60
2022-08-09T11:53:59.238Z,6.38
2022-08-09T11:56:41.381Z,7.22
2022-08-09T11:59:14.369Z,6.45
2022-08-09T12:02:17.426Z,7.40
2022-08-09T12:04:37.290Z,5.47
2022-08-09T12:07:08.939Z,8.43
2022-08-09T12:09:50.946Z,7.43
2022-08-09T12:12:28.692Z,5.28
2022-08-09T12:15:08.187Z,6.38
2022-08-09T12:17:43.519Z,5.72
2022-08-09T12:20:21.413Z,7.13
2022-08-09T12:22:56.370Z,8.20
2022-08-09T12:25:36.795Z,6.40
2022-08-09T12:29:11.405Z,6.97
2022-08-09T12:31:11.240Z,6.25
2022-08-09T12:34:01.028Z,6.13
2022-08-09T12:36:34.047Z,6.75
2022-08-09T12:39:17.211Z,7.00
2022-08-09T12:41:50.661Z,6.25
2022-08-09T12:44:24.364Z,6.15
2022-08-09T12:46:55.104Z,6.40
2022-08-09T12:49:26.542Z,5.93
2022-08-09T12:52:02.454Z,5.95
2022-08-09T12:56:12.926Z,5.50
2022-08-09T12:57:47.088Z,5.70
2022-08-09T13:00:25.140Z,5.20
2022-08-09T13:02:57.781Z,6.47
2022-08-09T13:05:35.523Z,7.35
2022-08-09T13:08:39.796Z,5.65
2022-08-09T13:11:22.691Z,6.93
2022-08-09T13:14:41.145Z,7.30
2022-08-09T13:16:54.774Z,7.53
2022-08-09T13:20:06.831Z,6.25
2022-08-09T13:22:36.844Z,6.65
2022-08-09T13:25:15.062Z,5.85
2022-08-09T13:27:54.663Z,6.60
2022-08-09T13:30:50.177Z,6.57
2022-08-09T13:33:51.604Z,6.32
2022-08-09T13:36:24.698Z,7.72
2022-08-09T13:41:17.596Z,5.70
2022-08-09T13:42:03.814Z,5.65
2022-08-09T13:44:34.849Z,8.15
2022-08-09T13:47:29.404Z,5.88
2022-08-09T13:50:02.326Z,6.95
2022-08-09T13:52:34.018Z,6.18
2022-08-09T13:55:07.410Z,5.88
2022-08-09T13:57:55.927Z,7.30
2022-08-09T14:00:30.383Z,6.00
2022-08-09T14:03:57.963Z,6.18
2022-08-09T14:06:01.414Z,7.68
2022-08-09T14:08:33.771Z,6.57
2022-08-09T14:11:04.101Z,7.00
2022-08-09T14:14:24.175Z,7.07
2022-08-09T14:16:40.184Z,6.63
2022-08-09T14:19:13.247Z,5.55
2022-08-09T14:21:43.408Z,5.93
2022-08-09T14:24:18.685Z,7.30
2022-08-09T14:26:53.574Z,6.85
2022-08-09T14:29:46.394Z,6.35
2022-08-09T14:32:16.302Z,6.45
2022-08-09T14:34:55.929Z,6.53
2022-08-09T14:37:28.589Z,6.43
2022-08-09T14:40:13.280Z,5.80
2022-08-09T14:42:43.693Z,5.85
2022-08-09T14:46:56.092Z,7.32
2022-08-09T14:48:06.568Z,8.30
2022-08-09T14:50:40.705Z,5.97
2022-08-09T14:53:16.750Z,6.70
2022-08-09T14:55:50.516Z,6.68
2022-08-09T14:58:21.226Z,5.35
2022-08-09T15:00:52.620Z,6.60
2022-08-09T15:03:28.611Z,8.07
2022-08-09T15:06:03.935Z,6.13
2022-08-09T15:08:34.446Z,6.57
2022-08-09T15:11:05.233Z,6.28
2022-08-09T15:13:48.016Z,5.57
2022-08-09T15:16:30.481Z,7.10
2022-08-09T15:19:05.650Z,5.32
2022-08-09T15:22:00.827Z,5.85
2022-08-09T15:24:32.858Z,5.13
2022-08-09T15:27:03.000Z,7.07
2022-08-09T15:30:48.655Z,7.32
2022-08-09T15:32:28.400Z,5.75
2022-08-09T15:35:02.017Z,5.22
2022-08-09T15:38:10.953Z,6.00
2022-08-09T15:40:44.288Z,7.03
2022-08-09T15:43:14.830Z,5.95
2022-08-09T15:46:07.703Z,7.15
2022-08-09T15:48:36.395Z,7.55
2022-08-09T15:51:30.196Z,5.85
2022-08-09T15:54:03.530Z,5.85
2022-08-09T15:56:38.290Z,7.07
2022-08-09T15:59:08.417Z,5.88
2022-08-09T16:01:38.870Z,5.18
2022-08-09T16:04:13.752Z,4.53
2022-08-09T16:06:44.812Z,4.43
2022-08-09T16:09:32.577Z,5.22
2022-08-09T16:12:14.090Z,5.53
2022-08-09T16:14:46.014Z,5.32
2022-08-09T16:17:16.940Z,5.43
2022-08-09T16:19:49.650Z,4.22
2022-08-09T16:22:35.425Z,6.18
2022-08-09T16:25:10.435Z,4.45
2022-08-09T16:27:41.369Z,4.80
2022-08-09T16:30:28.386Z,4.15
2022-08-09T16:33:12.190Z,4.07
2022-08-09T16:35:56.123Z,3.83
2022-08-09T16:41:04.151Z,5.10
2022-08-09T16:43:40.339Z,5.25
2022-08-09T16:46:12.400Z,4.50
2022-08-09T16:48:56.898Z,7.38
2022-08-09T16:51:32.326Z,4.00
2022-08-09T16:54:26.218Z,4.00
2022-08-09T16:56:58.030Z,3.80
2022-08-09T16:59:28.428Z,4.47
2022-08-09T17:02:05.269Z,4.07
2022-08-09T17:08:43.135Z,3.92
2022-08-09T17:10:03.819Z,4.15
2022-08-09T17:12:37.045Z,9.48
2022-08-09T17:15:30.605Z,3.28
2022-08-09T17:18:00.354Z,5.70
2022-08-09T17:20:37.544Z,3.40
2022-08-09T17:23:10.442Z,3.72
2022-08-09T17:25:45.096Z,3.90
2022-08-09T17:28:29.001Z,4.93
2022-08-09T17:30:59.143Z,4.85
2022-08-09T17:33:29.336Z,4.80
2022-08-09T17:36:06.654Z,3.38
2022-08-09T17:38:41.326Z,4.25
2022-08-09T17:41:38.680Z,3.25
2022-08-09T17:44:38.892Z,3.40
2022-08-09T17:47:04.121Z,3.28
2022-08-09T17:49:34.823Z,3.55
2022-08-09T17:52:05.500Z,3.90
2022-08-09T17:54:36.730Z,4.00
2022-08-09T17:57:20.516Z,3.67
2022-08-09T18:00:05.440Z,3.72
2022-08-09T18:02:41.371Z,4.45
2022-08-09T18:05:20.636Z,4.40
2022-08-09T18:07:50.821Z,6.70
2022-08-09T18:10:21.633Z,4.82
2022-08-09T18:13:43.241Z,3.50
2022-08-09T18:16:05.037Z,3.63
2022-08-09T18:18:36.286Z,3.92
2022-08-09T18:21:23.087Z,5.13
2022-08-09T18:24:11.115Z,5.38
2022-08-09T18:26:46.609Z,5.20
2022-08-09T18:30:40.546Z,2.22
2022-08-09T18:32:13.132Z,3.42
2022-08-09T18:34:46.225Z,3.60
2022-08-09T18:37:48.118Z,3.53
2022-08-09T18:40:11.720Z,3.50
2022-08-09T18:42:44.385Z,5.15
2022-08-09T18:45:21.571Z,3.85
2022-08-09T18:48:09.197Z,4.80
2022-08-09T18:50:42.697Z,3.17
2022-08-09T18:53:16.362Z,3.17
2022-08-09T18:55:56.900Z,4.22
2022-08-09T18:58:35.886Z,7.78
2022-08-09T19:04:01.210Z,4.20
2022-08-09T19:06:32.917Z,3.47
2022-08-09T19:09:03.569Z,6.70
2022-08-09T19:11:35.207Z,3.53
2022-08-09T19:14:08.370Z,3.25
2022-08-09T19:16:38.804Z,6.28
2022-08-09T19:19:25.725Z,5.25
2022-08-09T19:22:04.595Z,4.53
2022-08-09T19:25:09.081Z,3.22
2022-08-09T19:27:28.773Z,2.67
2022-08-09T19:30:23.141Z,4.72
2022-08-09T19:32:53.161Z,2.90
2022-08-09T19:35:26.861Z,3.50
2022-08-09T19:37:57.835Z,5.63
2022-08-09T19:40:34.211Z,3.85
2022-08-09T19:43:10.244Z,3.35
2022-08-09T19:45:57.348Z,3.00
2022-08-09T19:49:00.186Z,3.97
2022-08-09T19:51:24.064Z,3.58
2022-08-09T19:53:54.250Z,3.28
2022-08-09T19:56:28.534Z,3.30
2022-08-09T19:59:18.362Z,3.63
2022-08-09T20:02:00.534Z,3.47
2022-08-09T20:04:40.397Z,3.17
2022-08-09T20:07:20.988Z,3.97
2022-08-09T20:09:52.212Z,3.72
2022-08-09T20:12:37.738Z,3.30
2022-08-09T20:16:36.898Z,4.57
2022-08-09T20:18:08.220Z,3.17
2022-08-09T20:20:38.721Z,4.38
2022-08-09T20:23:11.496Z,4.60
2022-08-09T20:25:52.607Z,4.28
2022-08-09T20:28:34.184Z,4.88
2022-08-09T20:31:05.237Z,4.38
2022-08-09T20:33:44.129Z,7.18
2022-08-09T20:36:15.454Z,4.22
2022-08-09T20:39:18.822Z,4.53
2022-08-09T20:41:43.469Z,4.55
2022-08-09T20:44:13.694Z,4.85
2022-08-09T20:46:44.371Z,4.35
2022-08-09T20:49:16.095Z,4.32
2022-08-09T20:51:50.849Z,4.43
2022-08-09T20:54:24.696Z,5.07
2022-08-09T20:56:55.008Z,3.85
2022-08-09T21:00:20.569Z,2.67
2022-08-09T21:02:18.459Z,3.85
2022-08-09T21:05:56.697Z,3.97
2022-08-09T21:07:40.616Z,6.38
2022-08-09T21:10:17.186Z,3.67
2022-08-09T21:15:34.206Z,6.75
2022-08-09T21:18:23.352Z,6.25
2022-08-09T21:20:56.306Z,4.45
2022-08-09T21:23:50.964Z,4.28
2022-08-09T21:26:19.495Z,5.15
2022-08-09T21:28:55.969Z,6.17
2022-08-09T21:31:48.880Z,6.70
2022-08-09T21:34:28.454Z,4.72
2022-08-09T21:36:59.238Z,6.03
2022-08-09T21:39:42.201Z,3.70
2022-08-09T21:42:15.537Z,4.10
2022-08-09T21:44:46.555Z,5.60
2022-08-09T21:47:18.549Z,5.85
2022-08-09T21:49:50.905Z,3.67
2022-08-09T21:52:23.018Z,5.53
2022-08-09T21:55:03.394Z,5.05
2022-08-09T21:57:59.071Z,5.15
2022-08-09T22:03:05.828Z,4.05
2022-08-09T22:05:42.465Z,5.68
2022-08-09T22:08:16.643Z,3.55
2022-08-09T22:11:04.808Z,5.85
2022-08-09T22:13:43.354Z,3.30
2022-08-09T22:16:14.919Z,5.72
2022-08-09T22:18:54.253Z,6.13
2022-08-09T22:21:45.407Z,4.20
2022-08-09T22:24:24.142Z,4.13
2022-08-09T22:26:55.599Z,4.30
2022-08-09T22:29:46.456Z,7.03
2022-08-09T22:32:29.709Z,4.13
2022-08-09T22:35:06.984Z,3.80
2022-08-09T22:38:07.385Z,4.93
2022-08-09T22:40:38.530Z,6.43
2022-08-09T22:43:16.984Z,4.82
2022-08-09T22:48:13.373Z,6.65
2022-08-09T22:48:51.934Z,5.53
2022-08-09T22:51:24.062Z,4.32
2022-08-09T22:54:02.389Z,7.25
2022-08-09T22:56:34.591Z,3.45
2022-08-09T22:59:56.884Z,4.07
2022-08-09T23:01:59.257Z,4.20
2022-08-09T23:04:32.883Z,4.07
2022-08-09T23:09:48.054Z,4.63
2022-08-09T23:12:18.166Z,4.43
2022-08-09T23:14:48.317Z,4.18
2022-08-09T23:17:26.955Z,4.72
2022-08-09T23:20:07.244Z,5.72
2022-08-09T23:22:38.524Z,3.83
2022-08-09T23:25:11.108Z,5.85
2022-08-09T23:28:14.282Z,4.78
2022-08-09T23:30:31.625Z,5.60
2022-08-09T23:33:04.403Z,3.85
2022-08-09T23:36:05.706Z,5.47
2022-08-09T23:38:24.991Z,4.25
2022-08-09T23:40:56.535Z,6.03
2022-08-09T23:43:26.676Z,3.88
2022-08-09T23:45:56.830Z,6.80
2022-08-09T23:48:29.612Z,3.97
2022-08-09T23:50:59.830Z,3.60
2022-08-09T23:53:36.051Z,4.25
2022-08-09T23:56:09.122Z,6.53
2022-08-09T23:58:39.662Z,13.93
